Time;durP1;ratioP1;P1;durP2;ratioP2;P2;SDS_P1;SDS_P2;PMS_P1;PMS_P2;Temp;Humidity;BMP_temperature;BMP_pressure;BME280_temperature;BME280_humidity;BME280_pressure;Samples;Min_cycle;Max_cycle;Signal;HPM_P1;HPM_P2
2023/02/17 00:01:59;;;;;;;27.57;21.10;;;11.00;99.90;;;;;;5054542;28;20519;-80
2023/02/17 00:04:27;;;;;;;27.63;20.47;;;11.10;99.90;;;;;;5054563;28;20477;-81
2023/02/17 00:06:53;;;;;;;28.07;18.97;;;11.00;99.90;;;;;;5055005;28;20270;-82
2023/02/17 00:09:19;;;;;;;28.60;21.40;;;11.00;99.90;;;;;;5055000;28;20457;-82
2023/02/17 00:11:45;;;;;;;23.90;18.30;;;11.10;99.90;;;;;;5055773;28;20179;-82
2023/02/17 00:14:12;;;;;;;23.67;18.77;;;11.10;99.90;;;;;;5055031;28;20187;-82
2023/02/17 00:16:38;;;;;;;27.90;17.93;;;11.10;99.90;;;;;;5054467;28;20958;-81
2023/02/17 00:19:22;;;;;;;26.67;19.10;;;11.20;99.90;;;;;;5054780;28;20433;-81
2023/02/17 00:21:48;;;;;;;27.83;19.17;;;11.20;99.90;;;;;;5054776;28;20437;-84
2023/02/17 00:24:14;;;;;;;29.93;19.57;;;11.10;99.90;;;;;;5054999;28;20475;-88
2023/02/17 00:26:39;;;;;;;26.53;19.03;;;11.20;99.90;;;;;;5054960;28;20810;-86
2023/02/17 00:29:05;;;;;;;27.90;19.13;;;11.20;99.90;;;;;;5054602;28;20186;-85
2023/02/17 00:31:30;;;;;;;20.70;16.00;;;11.10;99.90;;;;;;5054148;28;20227;-84
2023/02/17 00:33:56;;;;;;;21.23;15.73;;;11.20;99.90;;;;;;5054512;28;20239;-85
2023/02/17 00:36:22;;;;;;;24.57;17.40;;;11.10;99.90;;;;;;5054118;28;20270;-87
2023/02/17 00:38:48;;;;;;;25.07;16.70;;;11.10;99.90;;;;;;5054151;28;20190;-83
2023/02/17 00:41:15;;;;;;;21.77;15.53;;;11.20;99.90;;;;;;5054045;28;20425;-86
2023/02/17 00:43:40;;;;;;;25.23;17.67;;;11.30;99.90;;;;;;5054255;28;20468;-83
2023/02/17 00:46:06;;;;;;;23.10;16.80;;;11.20;99.90;;;;;;5054014;28;20429;-83
2023/02/17 00:48:32;;;;;;;28.23;17.13;;;11.20;99.90;;;;;;5053788;28;20187;-84
2023/02/17 00:50:57;;;;;;;21.33;16.77;;;11.20;99.90;;;;;;5054201;28;20183;-83
2023/02/17 00:53:23;;;;;;;22.80;15.63;;;11.10;99.90;;;;;;5053928;28;20426;-82
2023/02/17 00:55:49;;;;;;;20.90;16.20;;;11.20;99.90;;;;;;5053803;28;20183;-83
2023/02/17 00:58:15;;;;;;;20.53;15.80;;;11.30;99.90;;;;;;5053607;28;20171;-82
2023/02/17 01:00:40;;;;;;;22.67;15.67;;;11.30;99.90;;;;;;5053777;28;20222;-82
2023/02/17 01:03:06;;;;;;;20.53;16.20;;;11.30;99.90;;;;;;5053742;28;20914;-83
2023/02/17 01:05:31;;;;;;;23.43;14.93;;;11.30;99.90;;;;;;5053700;28;20589;-83
2023/02/17 01:07:57;;;;;;;19.13;14.60;;;11.40;99.90;;;;;;5053487;28;20222;-79
2023/02/17 01:10:22;;;;;;;22.03;17.10;;;11.20;99.90;;;;;;5053706;28;20175;-78
2023/02/17 01:12:48;;;;;;;24.23;15.93;;;11.30;99.90;;;;;;5053177;28;20175;-80
2023/02/17 01:15:13;;;;;;;22.10;15.80;;;11.30;99.90;;;;;;5053345;28;20266;-77
2023/02/17 01:17:39;;;;;;;18.33;15.77;;;11.40;99.90;;;;;;5052625;28;20755;-77
2023/02/17 01:20:05;;;;;;;19.13;14.57;;;11.40;99.90;;;;;;5052896;28;20626;-77
2023/02/17 01:22:32;;;;;;;26.80;14.53;;;11.40;99.90;;;;;;5052182;28;20198;-78
2023/02/17 01:24:57;;;;;;;18.67;15.17;;;11.50;99.90;;;;;;5053031;28;20498;-77
2023/02/17 01:27:23;;;;;;;18.73;15.17;;;11.40;99.90;;;;;;5053335;28;20971;-77
2023/02/17 01:29:48;;;;;;;26.83;15.80;;;11.50;99.90;;;;;;5053067;28;20186;-81
2023/02/17 01:32:14;;;;;;;21.57;15.30;;;11.40;99.90;;;;;;5052878;28;20314;-76
2023/02/17 01:34:39;;;;;;;19.83;14.03;;;11.50;99.90;;;;;;5034093;28;20214;-77
2023/02/17 01:37:05;;;;;;;25.63;14.77;;;11.50;99.90;;;;;;5051932;28;20412;-78
2023/02/17 01:39:31;;;;;;;22.60;16.43;;;11.50;99.90;;;;;;5051806;28;20253;-79
2023/02/17 01:41:57;;;;;;;19.47;13.20;;;11.50;99.90;;;;;;5051557;28;20214;-78
2023/02/17 01:44:24;;;;;;;20.40;15.13;;;11.50;99.90;;;;;;5052383;28;20508;-78
2023/02/17 01:46:52;;;;;;;20.00;15.07;;;11.50;99.90;;;;;;5052738;28;20178;-78
2023/02/17 01:49:33;;;;;;;22.80;16.20;;;11.40;99.90;;;;;;5048058;28;20452;-77
2023/02/17 01:52:08;;;;;;;19.23;15.73;;;11.40;99.90;;;;;;5051810;28;20952;-79
2023/02/17 01:54:45;;;;;;;19.33;14.27;;;11.40;99.90;;;;;;5050440;28;20677;-80
2023/02/17 01:57:13;;;;;;;21.63;16.80;;;11.50;99.90;;;;;;5049584;28;20442;-79
2023/02/17 01:59:39;;;;;;;23.43;16.57;;;11.40;99.90;;;;;;5050703;28;20425;-77
2023/02/17 02:02:05;;;;;;;19.33;15.23;;;11.40;99.90;;;;;;5048320;28;20440;-77
2023/02/17 02:04:33;;;;;;;24.17;15.60;;;11.40;99.90;;;;;;5050790;28;20856;-78
2023/02/17 02:06:59;;;;;;;23.20;14.80;;;11.40;99.90;;;;;;5050988;28;20465;-77
2023/02/17 02:09:34;;;;;;;20.27;15.30;;;11.40;99.90;;;;;;5052619;28;20457;-77
2023/02/17 02:11:59;;;;;;;18.13;14.90;;;11.40;99.90;;;;;;5052593;28;20189;-78
2023/02/17 02:14:25;;;;;;;20.90;16.73;;;11.40;99.90;;;;;;5052904;28;20796;-78
2023/02/17 02:17:26;;;;;;;21.87;15.80;;;11.30;99.90;;;;;;5052320;28;20517;-78
2023/02/17 02:20:17;;;;;;;20.70;14.67;;;11.30;99.90;;;;;;4990886;28;20439;-77
2023/02/17 02:23:12;;;;;;;19.13;14.50;;;11.40;99.90;;;;;;5048719;28;20448;-77
2023/02/17 02:26:08;;;;;;;21.30;14.63;;;11.40;99.90;;;;;;5051441;28;20425;-77
2023/02/17 02:28:56;;;;;;;22.50;15.87;;;11.50;99.90;;;;;;5051493;28;20437;-76
2023/02/17 02:32:04;;;;;;;18.13;15.60;;;11.40;99.90;;;;;;5051998;28;20476;-75
2023/02/17 02:34:43;;;;;;;18.33;16.43;;;11.30;99.90;;;;;;5050238;28;20456;-80
2023/02/17 02:37:15;;;;;;;20.53;14.93;;;11.30;99.90;;;;;;5052702;28;20463;-80
2023/02/17 02:39:47;;;;;;;17.47;14.50;;;11.30;99.90;;;;;;5052919;28;20428;-81
2023/02/17 02:42:17;;;;;;;18.63;16.73;;;11.40;99.90;;;;;;5052706;28;20439;-81
2023/02/17 02:44:42;;;;;;;18.30;14.90;;;11.40;99.90;;;;;;5052628;28;20470;-81
2023/02/17 02:47:46;;;;;;;19.60;14.77;;;11.40;99.90;;;;;;5052341;28;20909;-81
2023/02/17 02:50:36;;;;;;;21.13;15.63;;;11.50;99.90;;;;;;5051425;28;20650;-80
2023/02/17 02:53:07;;;;;;;22.40;16.30;;;11.50;99.90;;;;;;5051116;28;20425;-75
2023/02/17 02:55:50;;;;;;;18.80;14.90;;;11.50;99.90;;;;;;5056052;28;20425;-76
2023/02/17 02:58:24;;;;;;;21.10;15.30;;;11.40;99.90;;;;;;5053966;28;20512;-79
2023/02/17 03:01:22;;;;;;;19.63;14.37;;;11.50;99.90;;;;;;5056280;28;20836;-75
2023/02/17 03:04:07;;;;;;;19.87;15.13;;;11.60;99.90;;;;;;5054768;28;20477;-76
2023/02/17 03:06:45;;;;;;;18.73;15.33;;;11.60;99.90;;;;;;5055846;28;20429;-75
2023/02/17 03:09:16;;;;;;;20.60;14.50;;;11.50;99.90;;;;;;5055873;28;20433;-75
2023/02/17 03:11:42;;;;;;;15.53;13.00;;;11.50;99.90;;;;;;5052903;28;20825;-75
2023/02/17 03:14:10;;;;;;;15.53;13.30;;;11.50;99.90;;;;;;5055548;28;20437;-78
2023/02/17 03:16:37;;;;;;;18.10;14.80;;;11.60;99.90;;;;;;5055505;28;20193;-78
2023/02/17 03:19:04;;;;;;;18.07;13.57;;;11.60;99.90;;;;;;5055586;28;20437;-78
2023/02/17 03:21:46;;;;;;;17.03;13.30;;;11.60;99.90;;;;;;5055801;28;20421;-78
2023/02/17 03:24:11;;;;;;;21.93;14.90;;;11.60;99.90;;;;;;5055243;28;20511;-78
2023/02/17 03:26:37;;;;;;;18.70;14.13;;;11.70;99.90;;;;;;5055425;28;20425;-78
2023/02/17 03:29:03;;;;;;;17.00;12.03;;;11.70;99.90;;;;;;5055172;28;20210;-78
2023/02/17 03:31:29;;;;;;;15.60;12.40;;;11.70;99.90;;;;;;5054663;28;20219;-78
2023/02/17 03:33:55;;;;;;;15.77;12.60;;;11.70;99.90;;;;;;5055292;28;20785;-78
2023/02/17 03:36:20;;;;;;;16.00;13.50;;;11.80;99.90;;;;;;5055040;28;20236;-78
2023/02/17 03:38:46;;;;;;;15.40;11.23;;;11.80;99.90;;;;;;5055427;28;20437;-83
2023/02/17 05:31:37;;;;;;;13.10;9.03;;;12.00;99.90;;;;;;5540663;22;20594;-80
2023/02/17 05:34:03;;;;;;;14.47;10.20;;;12.10;99.90;;;;;;5045483;28;20536;-78
2023/02/17 05:36:29;;;;;;;9.90;8.70;;;12.20;99.90;;;;;;5043685;28;20512;-79
2023/02/17 05:38:55;;;;;;;11.20;8.67;;;12.20;99.90;;;;;;5042033;28;20192;-74
2023/02/17 05:41:21;;;;;;;11.67;10.30;;;12.10;99.90;;;;;;5041587;28;20270;-76
2023/02/17 05:43:46;;;;;;;14.60;9.50;;;12.20;99.90;;;;;;5037257;28;20207;-76
2023/02/17 05:46:13;;;;;;;11.77;9.93;;;12.10;99.90;;;;;;5035717;28;20253;-74
2023/02/17 05:48:38;;;;;;;11.50;9.97;;;12.10;99.90;;;;;;5033608;28;20496;-73
2023/02/17 05:51:04;;;;;;;15.10;11.23;;;12.20;99.90;;;;;;5032345;28;20473;-79
2023/02/17 05:53:30;;;;;;;13.37;10.90;;;12.20;99.90;;;;;;5037882;28;20193;-83
2023/02/17 05:55:56;;;;;;;13.33;11.03;;;12.20;99.90;;;;;;5048374;28;20443;-83
2023/02/17 05:58:21;;;;;;;13.40;10.60;;;12.20;99.90;;;;;;5046697;28;20194;-81
2023/02/17 06:00:47;;;;;;;14.30;11.43;;;12.20;99.90;;;;;;5044769;28;20183;-79
2023/02/17 06:03:13;;;;;;;15.23;10.37;;;12.20;99.90;;;;;;5042788;28;20294;-80
2023/02/17 06:05:39;;;;;;;12.23;11.03;;;12.20;99.90;;;;;;5041232;28;20264;-79
2023/02/17 06:08:05;;;;;;;12.20;10.00;;;12.20;99.90;;;;;;5039197;28;20434;-79
2023/02/17 06:10:30;;;;;;;12.93;10.83;;;12.20;99.90;;;;;;5037152;28;20445;-79
2023/02/17 06:12:56;;;;;;;12.43;10.87;;;12.20;99.90;;;;;;5035679;28;20286;-79
2023/02/17 06:15:21;;;;;;;13.57;12.03;;;12.10;99.90;;;;;;5033718;28;20180;-79
2023/02/17 06:17:47;;;;;;;14.00;11.30;;;12.10;99.90;;;;;;5032327;28;20183;-79
2023/02/17 06:20:13;;;;;;;15.13;11.20;;;12.10;99.90;;;;;;5033087;28;20179;-81
2023/02/17 06:22:39;;;;;;;14.93;10.80;;;12.00;99.90;;;;;;5035076;28;20190;-81
2023/02/17 06:25:04;;;;;;;14.73;11.80;;;12.10;99.90;;;;;;5046282;28;20223;-81
2023/02/17 06:27:30;;;;;;;16.20;10.93;;;12.10;99.90;;;;;;5044963;28;20183;-79
2023/02/17 06:29:56;;;;;;;14.57;11.50;;;12.10;99.90;;;;;;5047079;28;20783;-79
2023/02/17 06:32:21;;;;;;;13.80;10.30;;;12.20;99.90;;;;;;5045005;28;20710;-80
2023/02/17 06:34:47;;;;;;;15.97;12.43;;;12.10;99.90;;;;;;5043463;28;20263;-80
2023/02/17 06:37:12;;;;;;;15.40;11.87;;;12.20;99.90;;;;;;5041532;28;20232;-81
2023/02/17 06:39:38;;;;;;;13.27;10.33;;;12.20;99.90;;;;;;5047210;28;20177;-81
2023/02/17 06:42:04;;;;;;;11.80;10.57;;;12.20;99.90;;;;;;5053078;28;20210;-81
2023/02/17 06:44:30;;;;;;;13.70;11.60;;;12.20;99.90;;;;;;5054482;28;20669;-82
2023/02/17 06:46:55;;;;;;;13.57;10.17;;;12.20;99.90;;;;;;5054279;28;20277;-81
2023/02/17 06:49:21;;;;;;;15.23;11.70;;;12.20;99.90;;;;;;5052501;28;20513;-81
2023/02/17 06:51:47;;;;;;;11.57;10.37;;;12.20;99.90;;;;;;5050670;28;20518;-82
2023/02/17 06:54:12;;;;;;;13.40;10.60;;;12.00;99.90;;;;;;5047661;28;20182;-80
2023/02/17 06:56:38;;;;;;;16.93;12.33;;;12.10;99.90;;;;;;5043434;28;20178;-81
2023/02/17 06:59:03;;;;;;;14.63;11.70;;;12.00;99.90;;;;;;5046111;28;20175;-82
2023/02/17 07:01:29;;;;;;;15.23;11.87;;;12.10;99.90;;;;;;5047681;28;20502;-82
2023/02/17 07:03:55;;;;;;;14.37;10.73;;;12.10;99.90;;;;;;5049232;28;20264;-82
2023/02/17 07:06:22;;;;;;;14.33;11.93;;;12.20;99.90;;;;;;5051505;28;20175;-82
2023/02/17 07:08:48;;;;;;;12.93;11.53;;;12.20;99.90;;;;;;5052995;28;20441;-82
2023/02/17 07:11:15;;;;;;;14.50;11.77;;;12.10;99.90;;;;;;5054454;28;20418;-81
2023/02/17 07:13:42;;;;;;;13.50;10.60;;;12.10;99.90;;;;;;5055251;28;20433;-81
2023/02/17 07:16:08;;;;;;;14.30;11.23;;;12.10;99.90;;;;;;5053301;28;20487;-81
2023/02/17 07:18:34;;;;;;;15.23;12.00;;;12.10;99.90;;;;;;5051634;28;20498;-81
2023/02/17 07:20:59;;;;;;;16.33;12.77;;;12.10;99.90;;;;;;5048154;28;20424;-82
2023/02/17 07:23:25;;;;;;;15.40;11.47;;;12.10;99.90;;;;;;5045902;28;20556;-79
2023/02/17 07:25:51;;;;;;;14.80;11.77;;;12.10;99.90;;;;;;5043401;28;20176;-79
2023/02/17 07:28:16;;;;;;;12.67;11.37;;;12.00;99.90;;;;;;5045046;28;20184;-79
2023/02/17 07:30:43;;;;;;;13.93;11.10;;;12.00;99.90;;;;;;5046859;28;20274;-79
2023/02/17 07:33:10;;;;;;;13.93;11.07;;;12.00;99.90;;;;;;5048707;28;20264;-79
2023/02/17 07:35:42;;;;;;;12.33;10.03;;;11.90;99.90;;;;;;5050239;28;20864;-79
2023/02/17 07:38:08;;;;;;;12.03;10.73;;;11.90;99.90;;;;;;5033976;28;20433;-79
2023/02/17 07:40:33;;;;;;;15.10;12.43;;;11.80;99.90;;;;;;5047120;28;20793;-80
2023/02/17 07:42:59;;;;;;;14.97;10.30;;;11.90;99.90;;;;;;5053094;28;20273;-81
2023/02/17 07:45:24;;;;;;;12.87;10.57;;;11.90;99.90;;;;;;5051663;28;20194;-81
2023/02/17 07:47:50;;;;;;;17.23;11.67;;;11.80;99.90;;;;;;5049542;28;20312;-81
2023/02/17 07:50:16;;;;;;;11.43;10.23;;;11.90;99.90;;;;;;5047763;28;20270;-81
2023/02/17 07:52:41;;;;;;;14.77;11.53;;;11.90;99.90;;;;;;5045890;28;20179;-81
2023/02/17 07:55:07;;;;;;;13.57;11.07;;;11.90;99.90;;;;;;5043601;28;20186;-81
2023/02/17 07:57:33;;;;;;;13.70;11.00;;;11.90;99.90;;;;;;5047701;28;20249;-81
2023/02/17 07:59:58;;;;;;;14.00;11.47;;;11.80;99.90;;;;;;5049363;28;20430;-82
2023/02/17 08:02:24;;;;;;;16.07;12.10;;;11.80;99.90;;;;;;5044640;28;20184;-80
2023/02/17 08:04:51;;;;;;;12.80;11.07;;;11.90;99.90;;;;;;5036659;28;20223;-81
2023/02/17 08:07:17;;;;;;;14.87;12.23;;;11.80;99.90;;;;;;5035278;28;20258;-81
2023/02/17 08:15:11;;;;;;;14.20;11.00;;;11.90;99.90;;;;;;5048133;28;20461;-83
2023/02/17 08:17:36;;;;;;;13.70;11.10;;;12.10;99.90;;;;;;5043680;28;20454;-83
2023/02/17 08:20:03;;;;;;;13.00;9.83;;;12.00;99.90;;;;;;5042837;28;20190;-83
2023/02/17 08:22:28;;;;;;;13.03;10.87;;;12.10;99.90;;;;;;5043938;28;20321;-83
2023/02/17 08:24:54;;;;;;;12.67;10.50;;;12.10;99.90;;;;;;5041486;28;20564;-83
2023/02/17 08:27:20;;;;;;;15.57;10.77;;;12.10;99.90;;;;;;5040221;28;20179;-83
2023/02/17 08:29:45;;;;;;;14.30;9.60;;;12.10;99.90;;;;;;5043252;28;20186;-83
2023/02/17 08:32:12;;;;;;;15.20;10.20;;;12.10;99.90;;;;;;5052004;28;20689;-82
2023/02/17 08:34:38;;;;;;;13.13;9.80;;;12.10;99.90;;;;;;5054770;28;20182;-83
2023/02/17 08:37:05;;;;;;;13.77;10.40;;;12.10;99.90;;;;;;5052511;28;20437;-82
2023/02/17 08:39:31;;;;;;;16.17;9.80;;;12.10;99.90;;;;;;5033648;28;20179;-83
2023/02/17 08:41:57;;;;;;;10.43;9.00;;;12.20;99.90;;;;;;5038896;28;20497;-80
2023/02/17 08:44:23;;;;;;;14.40;10.00;;;12.20;99.90;;;;;;5040124;28;20462;-82
2023/02/17 08:46:50;;;;;;;13.20;9.80;;;12.20;99.90;;;;;;5042560;28;20546;-82
2023/02/17 08:49:17;;;;;;;13.17;9.57;;;12.30;99.90;;;;;;5024786;28;20453;-82
2023/02/17 08:51:43;;;;;;;10.60;8.90;;;12.30;99.90;;;;;;5045976;28;20517;-84
2023/02/17 08:54:09;;;;;;;11.07;8.67;;;12.30;99.90;;;;;;5047110;28;20532;-83
2023/02/17 08:56:37;;;;;;;11.33;10.10;;;12.30;99.90;;;;;;5049173;28;20183;-82
2023/02/17 08:59:04;;;;;;;12.67;9.77;;;12.20;99.90;;;;;;5050639;28;20417;-82
2023/02/17 09:01:30;;;;;;;10.30;9.20;;;12.20;99.90;;;;;;5045163;28;20847;-83
2023/02/17 09:03:57;;;;;;;15.20;10.17;;;12.20;99.90;;;;;;5051943;28;20473;-83
2023/02/17 09:06:23;;;;;;;10.07;8.60;;;12.20;99.90;;;;;;5044298;28;20914;-83
2023/02/17 09:08:49;;;;;;;16.23;10.37;;;12.30;99.90;;;;;;5037945;28;20460;-83
2023/02/17 09:11:16;;;;;;;11.33;10.13;;;12.30;99.90;;;;;;5039599;28;20866;-83
2023/02/17 09:13:43;;;;;;;10.20;9.03;;;12.30;99.90;;;;;;5041180;28;20194;-83
2023/02/17 09:16:08;;;;;;;12.30;9.40;;;12.30;99.90;;;;;;5043200;28;20487;-83
2023/02/17 09:18:34;;;;;;;12.13;9.37;;;12.40;99.90;;;;;;5044694;28;20473;-82
2023/02/17 09:21:08;;;;;;;8.80;7.90;;;12.50;99.90;;;;;;5046252;28;20206;-82
2023/02/17 09:23:34;;;;;;;10.93;8.37;;;12.60;99.90;;;;;;5047265;28;20198;-82
2023/02/17 09:26:04;;;;;;;8.50;7.60;;;12.60;99.90;;;;;;5049724;28;20965;-83
2023/02/17 09:28:31;;;;;;;9.50;7.27;;;12.60;99.90;;;;;;5030226;28;20286;-84
2023/02/17 09:30:56;;;;;;;8.67;7.80;;;12.50;99.90;;;;;;5032875;28;20474;-83
2023/02/17 09:33:22;;;;;;;12.20;9.30;;;12.60;99.90;;;;;;5039504;28;20487;-83
2023/02/17 09:35:48;;;;;;;10.97;7.47;;;12.60;99.90;;;;;;5048341;28;20221;-83
2023/02/17 09:38:14;;;;;;;10.40;8.10;;;12.70;99.90;;;;;;5043130;28;20212;-83
2023/02/17 09:40:48;;;;;;;10.73;7.60;;;12.70;99.90;;;;;;5041382;28;20430;-83
2023/02/17 09:43:21;;;;;;;12.53;7.20;;;12.80;99.90;;;;;;5041393;28;20484;-83
2023/02/17 09:45:51;;;;;;;8.00;7.30;;;12.80;99.90;;;;;;5041143;28;20507;-81
2023/02/17 09:48:20;;;;;;;13.57;7.83;;;12.90;99.90;;;;;;5046644;28;20465;-82
2023/02/17 09:50:59;;;;;;;10.10;7.70;;;12.90;99.90;;;;;;5048355;28;20567;-81
2023/02/17 09:53:45;;;;;;;10.40;7.57;;;12.90;99.90;;;;;;5033977;28;20438;-82
2023/02/17 09:56:16;;;;;;;12.30;7.20;;;12.90;99.90;;;;;;5038848;28;20473;-82
2023/02/17 09:58:45;;;;;;;11.40;8.20;;;13.00;99.90;;;;;;5039330;28;20483;-82
2023/02/17 10:01:18;;;;;;;9.77;7.90;;;13.10;99.90;;;;;;5035738;28;20984;-81
2023/02/17 10:03:54;;;;;;;8.20;7.00;;;13.00;99.90;;;;;;5046753;28;20464;-82
2023/02/17 10:06:25;;;;;;;6.43;5.73;;;13.10;99.90;;;;;;5038277;28;20791;-82
2023/02/17 10:08:58;;;;;;;8.87;7.00;;;13.10;99.90;;;;;;5041495;28;20766;-82
2023/02/17 10:11:31;;;;;;;10.27;7.43;;;13.20;99.90;;;;;;5041158;28;20453;-82
2023/02/17 10:14:11;;;;;;;7.07;5.87;;;13.30;99.90;;;;;;5043770;28;20518;-82
2023/02/17 10:16:56;;;;;;;10.07;7.50;;;13.30;99.90;;;;;;5036218;28;20434;-83
2023/02/17 10:19:28;;;;;;;11.10;6.83;;;13.30;99.90;;;;;;5049228;28;20421;-83
2023/02/17 10:22:16;;;;;;;10.27;7.30;;;13.30;99.90;;;;;;5050678;28;20444;-82
2023/02/17 10:24:41;;;;;;;6.93;5.70;;;13.30;99.90;;;;;;5051935;28;20484;-83
2023/02/17 10:27:27;;;;;;;8.57;7.37;;;13.40;99.90;;;;;;5050156;28;20421;-83
2023/02/17 10:30:08;;;;;;;9.80;6.97;;;13.50;99.90;;;;;;5047774;28;20174;-83
2023/02/17 10:32:49;;;;;;;7.97;7.10;;;13.50;99.90;;;;;;5037618;28;20473;-82
2023/02/17 10:35:20;;;;;;;7.70;6.90;;;13.50;99.90;;;;;;5038256;28;20423;-82
2023/02/17 10:37:57;;;;;;;10.50;6.57;;;13.60;99.90;;;;;;5042646;28;20436;-81
2023/02/17 10:40:26;;;;;;;7.80;6.03;;;13.60;99.90;;;;;;5039007;28;20517;-81
2023/02/17 10:42:59;;;;;;;8.90;7.40;;;13.60;99.90;;;;;;5038785;28;20468;-80
2023/02/17 10:45:33;;;;;;;10.13;8.00;;;13.60;99.90;;;;;;5046929;28;20509;-82
2023/02/17 10:48:08;;;;;;;6.87;6.10;;;13.50;99.90;;;;;;5032102;28;20441;-82
2023/02/17 10:50:35;;;;;;;9.90;6.70;;;13.60;99.90;;;;;;5035584;28;20487;-82
2023/02/17 10:53:01;;;;;;;11.50;6.37;;;13.70;99.90;;;;;;5051142;28;20460;-81
2023/02/17 10:55:40;;;;;;;6.90;5.83;;;13.70;99.90;;;;;;5049485;28;20433;-82
2023/02/17 10:58:20;;;;;;;6.90;6.20;;;13.70;99.90;;;;;;5047204;28;20229;-82
2023/02/17 11:00:51;;;;;;;13.43;6.40;;;13.70;99.90;;;;;;5044291;28;20502;-82
2023/02/17 11:03:21;;;;;;;8.40;6.97;;;13.80;99.90;;;;;;5043539;28;20610;-82
2023/02/17 11:05:58;;;;;;;8.37;6.30;;;13.90;99.90;;;;;;5039237;28;20939;-82
2023/02/17 11:08:32;;;;;;;6.90;6.00;;;13.90;99.90;;;;;;5039283;28;20436;-82
2023/02/17 11:11:02;;;;;;;7.73;6.63;;;13.80;99.90;;;;;;5046479;28;20473;-83
2023/02/17 11:13:39;;;;;;;6.97;6.07;;;13.80;99.90;;;;;;5036946;28;20458;-82
2023/02/17 11:16:05;;;;;;;7.47;5.27;;;13.80;99.90;;;;;;5044172;28;20947;-82
2023/02/17 11:18:43;;;;;;;8.10;6.10;;;13.80;99.90;;;;;;5055221;28;20465;-82
2023/02/17 11:21:10;;;;;;;7.00;5.50;;;13.80;99.90;;;;;;5054114;28;20209;-82
2023/02/17 11:23:47;;;;;;;8.57;5.97;;;13.80;99.90;;;;;;5052130;28;20469;-82
2023/02/17 11:26:34;;;;;;;6.63;5.33;;;13.80;99.90;;;;;;5038914;28;20521;-85
2023/02/17 11:29:16;;;;;;;7.27;5.73;;;13.90;99.90;;;;;;5048318;28;20436;-84
2023/02/17 11:31:57;;;;;;;6.00;4.67;;;13.90;99.90;;;;;;5044574;28;20477;-84
2023/02/17 11:34:27;;;;;;;6.60;4.90;;;13.90;99.90;;;;;;5045708;28;20445;-84
2023/02/17 11:37:05;;;;;;;8.90;4.77;;;14.00;99.90;;;;;;5048872;28;20448;-84
2023/02/17 11:39:40;;;;;;;6.90;4.90;;;14.00;99.90;;;;;;5039203;28;20432;-84
2023/02/17 11:42:22;;;;;;;7.33;4.97;;;14.00;99.90;;;;;;5051888;28;20439;-84
2023/02/17 11:44:48;;;;;;;6.30;4.50;;;14.10;99.90;;;;;;5048337;28;20465;-84
2023/02/17 11:47:34;;;;;;;9.83;5.60;;;14.30;99.90;;;;;;5037535;28;20515;-84
2023/02/17 11:50:18;;;;;;;10.80;4.93;;;14.40;99.90;;;;;;5038109;28;20430;-81
2023/02/17 11:53:41;;;;;;;7.00;4.70;;;14.30;99.90;;;;;;5050437;28;20441;-81
2023/02/17 11:56:17;;;;;;;6.30;4.60;;;14.40;99.90;;;;;;4967788;28;20831;-81
2023/02/17 11:58:53;;;;;;;8.10;5.40;;;14.40;99.90;;;;;;5043015;28;20433;-81
2023/02/17 12:01:37;;;;;;;5.17;4.10;;;14.50;99.90;;;;;;5042632;28;20428;-81
2023/02/17 12:04:24;;;;;;;7.17;5.03;;;14.50;99.90;;;;;;5047637;28;20529;-81
2023/02/17 12:07:25;;;;;;;5.27;3.90;;;14.50;99.90;;;;;;5049329;28;20841;-82
2023/02/17 12:10:18;;;;;;;5.20;4.03;;;14.60;99.90;;;;;;5034417;28;20803;-81
2023/02/17 12:12:43;;;;;;;5.00;4.00;;;14.50;99.90;;;;;;5036493;28;20502;-81
2023/02/17 12:15:33;;;;;;;6.93;4.30;;;14.50;99.90;;;;;;5037395;28;20975;-81
2023/02/17 12:18:03;;;;;;;4.83;4.00;;;14.50;99.90;;;;;;5041070;28;20183;-81
2023/02/17 12:20:54;;;;;;;8.97;3.73;;;14.50;99.90;;;;;;5049544;28;20870;-82
2023/02/17 12:23:51;;;;;;;4.90;3.60;;;14.60;99.90;;;;;;5041628;28;20493;-81
2023/02/17 12:26:17;;;;;;;6.13;4.57;;;14.50;99.90;;;;;;5024183;28;20928;-81
2023/02/17 12:29:10;;;;;;;7.77;5.27;;;14.50;99.90;;;;;;5045388;28;20457;-81
2023/02/17 12:32:01;;;;;;;6.70;4.57;;;14.60;99.90;;;;;;5046773;28;20227;-81
2023/02/17 12:34:44;;;;;;;6.00;4.33;;;14.50;99.90;;;;;;5041102;28;20866;-81
2023/02/17 12:37:30;;;;;;;4.50;3.53;;;14.50;99.90;;;;;;5035971;28;20473;-82
2023/02/17 12:40:18;;;;;;;6.03;4.17;;;14.60;99.90;;;;;;5034782;28;20585;-81
2023/02/17 12:42:59;;;;;;;5.40;3.60;;;14.60;99.90;;;;;;5035787;28;20428;-81
2023/02/17 12:45:37;;;;;;;5.17;4.20;;;14.60;99.90;;;;;;5037248;28;21131;-83
2023/02/17 12:48:21;;;;;;;8.43;4.30;;;14.60;99.90;;;;;;5037509;28;20780;-82
2023/02/17 12:50:58;;;;;;;7.37;4.27;;;14.60;99.90;;;;;;5046271;28;20464;-87
2023/02/17 12:53:41;;;;;;;6.07;4.67;;;14.60;99.90;;;;;;5041064;28;20418;-79
2023/02/17 12:56:30;;;;;;;5.13;3.80;;;14.60;99.90;;;;;;5042045;28;20433;-80
2023/02/17 12:59:04;;;;;;;4.27;3.33;;;14.50;99.90;;;;;;5021332;28;20822;-81
2023/02/17 13:01:31;;;;;;;4.10;3.70;;;14.50;99.90;;;;;;5038685;28;20511;-80
2023/02/17 13:03:58;;;;;;;6.93;4.50;;;14.50;99.90;;;;;;5049586;28;20507;-79
2023/02/17 13:06:31;;;;;;;6.13;3.93;;;14.50;99.90;;;;;;5031341;28;20437;-79
2023/02/17 13:09:18;;;;;;;6.37;3.97;;;14.60;99.90;;;;;;5039107;28;20421;-79
2023/02/17 13:11:44;;;;;;;6.13;3.43;;;14.60;99.90;;;;;;5050981;28;20433;-81
2023/02/17 13:14:23;;;;;;;5.07;4.20;;;14.50;99.90;;;;;;5049171;28;20414;-82
2023/02/17 13:16:48;;;;;;;6.20;4.23;;;14.60;99.90;;;;;;5047499;28;20742;-81
2023/02/17 13:19:14;;;;;;;9.77;4.70;;;14.60;99.90;;;;;;5045231;28;20440;-81
2023/02/17 13:21:53;;;;;;;6.80;4.57;;;14.60;99.90;;;;;;5043643;28;20222;-86
2023/02/17 13:24:37;;;;;;;6.13;5.13;;;14.60;99.90;;;;;;5043703;28;20473;-82
2023/02/17 13:27:30;;;;;;;6.80;4.37;;;14.50;99.90;;;;;;5038373;28;20440;-82
2023/02/17 13:30:05;;;;;;;5.70;5.10;;;14.50;99.90;;;;;;5037592;28;20432;-84
2023/02/17 13:32:36;;;;;;;5.80;4.40;;;14.50;99.90;;;;;;5050304;28;20989;-80
2023/02/17 13:35:25;;;;;;;5.97;5.03;;;14.40;99.90;;;;;;5030685;28;20438;-80
2023/02/17 13:37:51;;;;;;;9.00;4.80;;;14.40;99.90;;;;;;5023622;28;20444;-79
2023/02/17 13:40:17;;;;;;;9.00;5.07;;;14.40;99.90;;;;;;5036548;28;20438;-80
2023/02/17 13:42:47;;;;;;;7.60;5.80;;;14.60;99.90;;;;;;5038526;28;20481;-80
2023/02/17 13:45:20;;;;;;;7.17;6.07;;;14.60;99.90;;;;;;5040339;28;20208;-82
2023/02/17 13:47:47;;;;;;;7.23;6.30;;;14.60;99.90;;;;;;5041873;28;20436;-84
2023/02/17 13:50:33;;;;;;;6.60;5.87;;;14.60;99.90;;;;;;5044052;28;20464;-79
2023/02/17 13:53:01;;;;;;;7.97;5.23;;;14.60;99.90;;;;;;5045124;28;20429;-79
2023/02/17 13:55:27;;;;;;;6.90;5.77;;;14.50;99.90;;;;;;5035679;28;20432;-79
2023/02/17 13:57:55;;;;;;;7.33;5.53;;;14.60;99.90;;;;;;5024183;28;20528;-80
2023/02/17 14:00:24;;;;;;;9.57;5.20;;;14.50;99.90;;;;;;5051072;28;20209;-79
2023/02/17 14:02:53;;;;;;;6.67;5.60;;;14.60;99.90;;;;;;5041879;28;20932;-79
2023/02/17 14:05:39;;;;;;;8.60;6.07;;;14.60;99.90;;;;;;5034655;28;20569;-79
2023/02/17 14:08:25;;;;;;;9.03;4.37;;;14.70;99.90;;;;;;5039781;28;20595;-83
2023/02/17 14:10:51;;;;;;;9.30;4.20;;;14.70;99.90;;;;;;5039309;28;20438;-81
2023/02/17 14:13:17;;;;;;;3.87;3.47;;;14.60;99.90;;;;;;5046264;28;20426;-81
2023/02/17 14:15:52;;;;;;;5.60;3.40;;;14.60;99.90;;;;;;5048056;28;20437;-78
2023/02/17 14:18:37;;;;;;;4.60;4.20;;;14.60;99.90;;;;;;5037777;28;20277;-77
2023/02/17 14:21:07;;;;;;;6.20;4.83;;;14.60;99.90;;;;;;5041148;28;20517;-78
2023/02/17 14:23:45;;;;;;;5.77;4.83;;;14.50;99.90;;;;;;5040381;28;20913;-77
2023/02/17 14:26:29;;;;;;;5.40;4.87;;;14.50;99.90;;;;;;5019102;28;20806;-79
2023/02/17 14:29:03;;;;;;;5.20;4.70;;;14.50;99.90;;;;;;5038972;28;20454;-78
2023/02/17 14:31:35;;;;;;;5.63;5.07;;;14.60;99.90;;;;;;5042941;28;20470;-80
2023/02/17 14:34:02;;;;;;;6.00;5.50;;;14.50;99.90;;;;;;5042443;28;20513;-81
2023/02/17 14:36:37;;;;;;;8.27;6.90;;;14.60;99.90;;;;;;5047331;28;20464;-77
2023/02/17 14:39:05;;;;;;;11.10;8.03;;;14.50;99.90;;;;;;5044713;28;20440;-81
2023/02/17 14:41:31;;;;;;;10.50;9.57;;;14.50;99.90;;;;;;5048566;28;20964;-77
2023/02/17 14:43:57;;;;;;;12.47;11.17;;;14.50;99.90;;;;;;5048704;28;20476;-80
2023/02/17 14:46:23;;;;;;;10.47;9.40;;;14.50;99.90;;;;;;5049020;28;20238;-83
2023/02/17 14:48:49;;;;;;;11.10;9.77;;;14.40;99.90;;;;;;5048648;28;20229;-77
2023/02/17 14:51:21;;;;;;;10.60;7.97;;;14.30;99.90;;;;;;5051229;28;20430;-81
2023/02/17 14:53:47;;;;;;;8.87;7.87;;;14.30;99.90;;;;;;5050122;28;20936;-85